createdAt,value
2022-12-17T00:02:41.616Z,19.00
2022-12-17T00:05:27.051Z,17.75
2022-12-17T00:08:15.354Z,19.50
2022-12-17T00:11:00.466Z,14.40
2022-12-17T00:13:45.688Z,17.75
2022-12-17T00:16:30.887Z,16.25
2022-12-17T00:19:15.900Z,16.00
2022-12-17T00:22:01.150Z,20.00
2022-12-17T00:24:46.002Z,17.00
2022-12-17T00:27:30.965Z,14.75
2022-12-17T00:30:15.879Z,20.40
2022-12-17T00:33:00.959Z,19.25
2022-12-17T00:35:46.114Z,18.80
2022-12-17T00:38:35.267Z,16.00
2022-12-17T00:41:20.237Z,16.00
2022-12-17T00:44:05.413Z,16.00
2022-12-17T00:46:50.429Z,15.00
2022-12-17T00:49:35.213Z,15.00
2022-12-17T00:52:20.173Z,16.75
2022-12-17T00:55:05.256Z,17.25
2022-12-17T00:57:50.076Z,14.75
2022-12-17T01:00:35.135Z,16.00
2022-12-17T01:03:28.253Z,16.00
2022-12-17T01:06:13.726Z,16.00
2022-12-17T01:08:59.158Z,18.00
2022-12-17T01:11:44.046Z,16.00
2022-12-17T01:14:29.000Z,17.75
2022-12-17T01:17:13.928Z,14.00
2022-12-17T01:20:00.691Z,15.00
2022-12-17T01:22:45.527Z,15.00
2022-12-17T01:25:30.850Z,15.00
2022-12-17T01:28:15.859Z,13.60
2022-12-17T01:31:01.144Z,14.00
2022-12-17T01:33:46.097Z,15.00
2022-12-17T01:36:31.041Z,14.00
2022-12-17T01:39:32.850Z,14.00
2022-12-17T01:42:17.980Z,14.60
2022-12-17T01:45:13.099Z,15.00
2022-12-17T01:48:04.352Z,15.00
2022-12-17T01:50:51.709Z,13.25
2022-12-17T01:53:39.182Z,13.00
2022-12-17T01:56:32.551Z,13.25
2022-12-17T01:59:17.523Z,13.60
2022-12-17T02:02:02.497Z,13.40
2022-12-17T02:04:48.072Z,13.00
2022-12-17T02:07:41.135Z,13.40
2022-12-17T02:10:26.534Z,15.00
2022-12-17T02:13:14.491Z,12.80
2022-12-17T02:16:02.994Z,11.00
2022-12-17T02:18:51.011Z,12.00
2022-12-17T02:21:37.536Z,13.50
2022-12-17T02:24:40.602Z,13.00
2022-12-17T02:27:28.478Z,13.00
2022-12-17T02:30:14.999Z,12.50
2022-12-17T02:33:01.922Z,13.00
2022-12-17T02:35:49.347Z,12.00
2022-12-17T02:38:38.381Z,11.00
2022-12-17T02:41:24.780Z,13.00
2022-12-17T02:44:11.506Z,13.00
2022-12-17T02:46:57.685Z,12.00
2022-12-17T02:49:42.542Z,12.00
2022-12-17T02:52:35.703Z,11.60
2022-12-17T02:55:21.137Z,12.80
2022-12-17T02:58:06.108Z,10.60
2022-12-17T03:00:50.945Z,11.00
2022-12-17T03:03:36.476Z,10.25
2022-12-17T03:06:22.072Z,12.00
2022-12-17T03:09:07.313Z,11.00
2022-12-17T03:11:52.261Z,12.00
2022-12-17T03:14:37.429Z,19.00
2022-12-17T03:17:22.762Z,20.00
2022-12-17T03:20:07.666Z,16.00
2022-12-17T03:22:52.593Z,19.00
2022-12-17T03:25:37.500Z,17.00
2022-12-17T03:28:23.435Z,19.00
2022-12-17T03:31:08.422Z,17.00
2022-12-17T03:33:54.552Z,18.25
2022-12-17T03:36:39.434Z,24.20
2022-12-17T03:39:26.246Z,20.25
2022-12-17T03:42:11.156Z,18.40
2022-12-17T03:44:55.949Z,16.50
2022-12-17T03:47:40.924Z,28.50
2022-12-17T03:50:26.462Z,19.00
2022-12-17T03:53:11.337Z,15.75
2022-12-17T03:55:56.346Z,19.00
2022-12-17T03:58:41.260Z,13.00
2022-12-17T04:01:26.159Z,16.60
2022-12-17T04:04:11.244Z,22.25
2022-12-17T04:06:56.405Z,22.00
2022-12-17T04:09:41.374Z,22.00
2022-12-17T04:12:26.319Z,25.50
2022-12-17T04:15:11.165Z,22.00
2022-12-17T04:17:56.197Z,18.60
2022-12-17T04:20:41.308Z,18.50
2022-12-17T04:23:26.184Z,16.00
2022-12-17T04:26:11.115Z,18.80
2022-12-17T04:28:56.276Z,16.00
2022-12-17T04:31:41.547Z,14.00
2022-12-17T04:34:26.573Z,14.00
2022-12-17T04:37:11.571Z,17.00
2022-12-17T04:39:56.749Z,13.50
2022-12-17T04:42:41.623Z,16.25
2022-12-17T04:45:27.105Z,16.50
2022-12-17T04:48:19.265Z,18.00
2022-12-17T04:51:03.929Z,20.80
2022-12-17T04:53:48.840Z,22.00
2022-12-17T04:56:33.891Z,16.20
2022-12-17T04:59:18.886Z,21.80
2022-12-17T05:02:04.087Z,22.00
2022-12-17T05:04:49.312Z,13.75
2022-12-17T05:07:34.268Z,18.75
2022-12-17T05:10:19.082Z,13.00
2022-12-17T05:13:03.951Z,18.00
2022-12-17T05:15:53.054Z,16.00
2022-12-17T05:18:38.785Z,22.00
2022-12-17T05:21:28.110Z,16.00
2022-12-17T05:24:16.828Z,20.75
2022-12-17T05:27:01.791Z,17.00
2022-12-17T05:29:46.926Z,20.00
2022-12-17T05:32:31.921Z,22.00
2022-12-17T05:35:16.816Z,23.50
2022-12-17T05:38:01.710Z,21.00
2022-12-17T05:40:46.453Z,21.20
2022-12-17T05:43:31.404Z,18.00
2022-12-17T05:46:16.322Z,20.50
2022-12-17T05:49:01.146Z,16.40
2022-12-17T05:51:46.248Z,18.80
2022-12-17T05:54:31.165Z,18.00
2022-12-17T05:57:35.999Z,20.60
2022-12-17T06:00:20.751Z,24.00
2022-12-17T06:03:05.642Z,29.00
2022-12-17T06:05:50.642Z,29.40
2022-12-17T06:08:35.655Z,25.60
2022-12-17T06:11:20.776Z,29.00
2022-12-17T06:14:05.579Z,25.00
2022-12-17T06:16:50.517Z,16.50
2022-12-17T06:19:35.348Z,21.00
2022-12-17T06:22:20.349Z,22.75
2022-12-17T06:25:05.185Z,19.40
2022-12-17T06:27:50.104Z,20.00
2022-12-17T06:30:35.103Z,20.00
2022-12-17T06:33:23.592Z,20.25
2022-12-17T06:36:10.431Z,20.75
2022-12-17T06:38:55.367Z,18.20
2022-12-17T06:41:40.312Z,19.75
2022-12-17T06:44:25.450Z,20.25
2022-12-17T06:47:10.471Z,22.80
2022-12-17T06:50:01.062Z,22.00
2022-12-17T06:52:46.778Z,22.50
2022-12-17T06:55:31.920Z,19.80
2022-12-17T06:58:18.314Z,20.00
2022-12-17T07:01:03.982Z,21.00
2022-12-17T07:03:49.141Z,22.20
2022-12-17T07:06:34.061Z,21.00
2022-12-17T07:09:20.043Z,16.00
2022-12-17T07:12:05.216Z,23.00
2022-12-17T07:14:50.329Z,26.00
2022-12-17T07:17:35.120Z,21.50
2022-12-17T07:20:20.107Z,22.25
2022-12-17T07:23:05.066Z,20.50
2022-12-17T07:25:50.022Z,21.00
2022-12-17T07:28:35.015Z,25.00
2022-12-17T07:31:20.119Z,21.50
2022-12-17T07:34:05.005Z,18.00
2022-12-17T07:36:49.991Z,25.00
2022-12-17T07:39:35.047Z,24.50
2022-12-17T07:42:20.031Z,25.00
2022-12-17T07:45:05.048Z,21.00
2022-12-17T07:47:49.968Z,20.80
2022-12-17T07:50:35.293Z,22.50
2022-12-17T07:53:21.148Z,32.00
2022-12-17T07:56:06.369Z,31.20
2022-12-17T07:58:51.804Z,29.40
2022-12-17T08:01:36.811Z,31.00
2022-12-17T08:04:22.116Z,20.00
2022-12-17T08:07:11.096Z,24.00
2022-12-17T08:09:58.211Z,22.80
2022-12-17T08:12:43.042Z,20.00
2022-12-17T08:15:28.400Z,20.00
2022-12-17T08:18:22.822Z,21.00
2022-12-17T08:21:10.997Z,22.75
2022-12-17T08:23:55.918Z,24.00
2022-12-17T08:26:44.389Z,22.25
2022-12-17T08:29:32.537Z,28.40
2022-12-17T08:32:17.664Z,25.60
2022-12-17T08:35:02.533Z,23.20
2022-12-17T08:37:47.662Z,26.00
2022-12-17T08:40:32.657Z,21.00
2022-12-17T08:43:19.318Z,22.50
2022-12-17T08:46:07.690Z,21.20
2022-12-17T08:48:53.186Z,27.75
2022-12-17T08:51:37.990Z,28.00
2022-12-17T08:54:22.833Z,23.00
2022-12-17T08:57:07.850Z,26.00
2022-12-17T08:59:52.878Z,32.40
2022-12-17T09:02:37.752Z,25.75
2022-12-17T09:05:23.087Z,28.00
2022-12-17T09:08:08.189Z,20.00
2022-12-17T09:10:52.919Z,25.00
2022-12-17T09:13:38.491Z,28.50
2022-12-17T09:16:23.817Z,29.00
2022-12-17T09:19:09.329Z,22.00
2022-12-17T09:21:54.433Z,24.20
2022-12-17T09:24:39.614Z,23.00
2022-12-17T09:27:24.577Z,21.00
2022-12-17T09:30:09.544Z,23.50
2022-12-17T09:32:54.431Z,22.20
2022-12-17T09:35:39.540Z,26.00
2022-12-17T09:38:24.418Z,23.00
2022-12-17T09:41:10.392Z,23.00
2022-12-17T09:44:01.675Z,27.60
2022-12-17T09:47:06.691Z,26.50
2022-12-17T09:49:51.844Z,20.00
2022-12-17T09:52:44.671Z,24.25
2022-12-17T09:55:50.932Z,26.00
2022-12-17T09:58:40.540Z,31.00
2022-12-17T10:01:32.515Z,40.00
2022-12-17T10:04:17.758Z,32.00
2022-12-17T10:07:02.750Z,34.25
2022-12-17T10:09:48.722Z,34.00
2022-12-17T10:12:35.358Z,62.25
2022-12-17T10:15:20.739Z,45.50
2022-12-17T10:18:05.598Z,32.40
2022-12-17T10:20:50.772Z,32.00
2022-12-17T10:23:49.445Z,43.50
2022-12-17T10:26:37.542Z,30.00
2022-12-17T10:29:33.168Z,29.00
2022-12-17T10:32:20.166Z,46.50
2022-12-17T10:35:05.945Z,55.50
2022-12-17T10:37:53.133Z,39.00
2022-12-17T10:40:50.589Z,40.50
2022-12-17T10:43:41.741Z,34.00
2022-12-17T10:46:27.129Z,24.40
2022-12-17T10:49:21.821Z,26.00
2022-12-17T10:52:07.289Z,23.00
2022-12-17T10:54:52.420Z,25.00
2022-12-17T10:57:51.240Z,22.20
2022-12-17T11:00:36.188Z,20.33
2022-12-17T11:03:21.733Z,23.40
2022-12-17T11:06:08.269Z,26.00
2022-12-17T11:08:53.635Z,23.00
2022-12-17T11:11:39.478Z,27.00
2022-12-17T11:14:33.241Z,26.00
2022-12-17T11:17:21.996Z,23.20
2022-12-17T11:20:13.499Z,20.00
2022-12-17T11:23:06.844Z,23.00
2022-12-17T11:26:00.990Z,26.00
2022-12-17T11:28:48.013Z,22.00
2022-12-17T11:31:36.005Z,23.50
2022-12-17T11:34:21.111Z,24.00
2022-12-17T11:37:15.613Z,22.40
2022-12-17T11:40:06.475Z,28.00
2022-12-17T11:43:34.420Z,18.00
2022-12-17T11:46:28.403Z,22.75
2022-12-17T11:49:22.920Z,22.00
2022-12-17T11:52:28.134Z,23.00
2022-12-17T11:55:19.425Z,21.20
2022-12-17T11:58:17.844Z,21.00
2022-12-17T12:01:13.434Z,20.00
2022-12-17T12:04:14.183Z,20.00
2022-12-17T12:07:25.674Z,22.00
2022-12-17T12:10:20.766Z,23.00
2022-12-17T12:13:44.455Z,19.80
2022-12-17T12:16:33.353Z,23.00
2022-12-17T12:19:18.745Z,26.00
2022-12-17T12:22:03.528Z,28.00
2022-12-17T12:25:06.628Z,26.00
2022-12-17T12:28:10.622Z,23.00
2022-12-17T12:31:03.958Z,22.00
2022-12-17T12:34:12.092Z,26.00
2022-12-17T12:36:59.516Z,24.25
2022-12-17T12:39:50.433Z,28.00
2022-12-17T12:42:42.519Z,30.00
2022-12-17T12:45:46.599Z,23.00
2022-12-17T12:48:46.892Z,24.00
2022-12-17T12:51:41.601Z,23.00
2022-12-17T12:54:45.953Z,20.75
2022-12-17T12:58:03.512Z,21.75
2022-12-17T13:00:52.849Z,23.00
2022-12-17T13:03:52.581Z,22.00
2022-12-17T13:06:39.032Z,22.00
2022-12-17T13:09:32.311Z,21.75
2022-12-17T13:12:00.819Z,19.50
2022-12-17T13:14:46.472Z,19.00
2022-12-17T13:17:18.897Z,19.75
2022-12-17T13:19:57.605Z,20.00
2022-12-17T13:22:24.804Z,22.00
2022-12-17T13:24:52.589Z,20.00
2022-12-17T13:27:33.953Z,19.20
2022-12-17T13:30:18.537Z,22.60
2022-12-17T13:33:01.342Z,19.00
2022-12-17T13:35:46.363Z,19.75
2022-12-17T13:38:37.397Z,16.50
2022-12-17T13:41:10.366Z,21.80
2022-12-17T13:43:43.574Z,20.00
2022-12-17T13:46:23.766Z,20.00
2022-12-17T13:48:57.854Z,23.00
2022-12-17T13:51:25.862Z,18.00
2022-12-17T13:54:00.115Z,17.67
2022-12-17T13:56:28.474Z,18.25
2022-12-17T13:58:55.853Z,20.00
2022-12-17T14:01:22.631Z,19.80
2022-12-17T14:04:05.773Z,19.75
2022-12-17T14:06:34.933Z,19.00
2022-12-17T14:09:02.338Z,18.60
2022-12-17T14:11:47.460Z,20.00
2022-12-17T14:14:20.912Z,22.00
2022-12-17T14:16:50.829Z,20.00
2022-12-17T14:19:17.689Z,20.00
2022-12-17T14:21:44.290Z,18.00
2022-12-17T14:24:12.962Z,22.00
2022-12-17T14:26:52.811Z,20.25
2022-12-17T14:29:26.915Z,19.50
2022-12-17T14:31:54.689Z,22.00
2022-12-17T14:34:21.186Z,21.60
2022-12-17T14:36:53.314Z,21.25
2022-12-17T14:39:29.034Z,21.00
2022-12-17T14:42:15.505Z,20.00
2022-12-17T14:44:53.045Z,20.00
2022-12-17T14:47:24.747Z,21.00
2022-12-17T14:50:23.399Z,23.00
2022-12-17T14:52:53.171Z,23.75
2022-12-17T14:55:28.580Z,23.00
2022-12-17T14:58:07.583Z,27.50
2022-12-17T15:00:34.754Z,52.00
2022-12-17T15:03:01.327Z,61.50
2022-12-17T15:05:28.118Z,36.00
2022-12-17T15:07:56.086Z,38.00
2022-12-17T15:10:22.617Z,30.00
2022-12-17T15:12:51.477Z,26.80
2022-12-17T15:15:17.980Z,25.00
2022-12-17T15:17:44.684Z,29.00
2022-12-17T15:20:18.125Z,30.00
2022-12-17T15:22:44.995Z,28.00
2022-12-17T15:25:15.264Z,32.00
2022-12-17T15:27:41.754Z,30.67
2022-12-17T15:30:10.314Z,30.60
2022-12-17T15:32:36.778Z,25.00
2022-12-17T15:35:03.233Z,32.00
2022-12-17T15:37:29.705Z,31.00
2022-12-17T15:39:56.430Z,32.00
2022-12-17T15:42:41.352Z,32.25
2022-12-17T15:45:08.229Z,34.80
2022-12-17T15:47:34.796Z,30.00
2022-12-17T15:50:01.287Z,29.00
2022-12-17T15:52:27.792Z,37.00
2022-12-17T15:54:54.225Z,56.60
2022-12-17T15:57:20.685Z,63.50
2022-12-17T15:59:47.123Z,79.25
2022-12-17T16:02:13.755Z,47.50
2022-12-17T16:04:41.137Z,36.00
2022-12-17T16:07:07.619Z,51.50
2022-12-17T16:09:34.118Z,45.80
2022-12-17T16:12:00.564Z,42.00
2022-12-17T16:14:27.074Z,71.00
2022-12-17T16:16:53.550Z,74.00
2022-12-17T16:19:23.058Z,58.20
2022-12-17T16:21:49.559Z,49.50
2022-12-17T16:24:16.064Z,76.25
2022-12-17T16:26:42.501Z,55.60
2022-12-17T16:29:08.998Z,56.25
2022-12-17T16:31:35.678Z,49.60
2022-12-17T16:34:02.288Z,55.00
2022-12-17T16:36:28.843Z,25.40
2022-12-17T16:38:55.361Z,30.50
2022-12-17T16:41:21.980Z,28.25
2022-12-17T16:43:48.644Z,31.25
2022-12-17T16:46:34.528Z,32.60
2022-12-17T16:49:06.725Z,55.50
2022-12-17T16:51:33.225Z,35.60
2022-12-17T16:54:03.736Z,53.60
2022-12-17T16:56:32.818Z,42.50
2022-12-17T16:59:04.824Z,29.67
2022-12-17T17:01:32.113Z,30.00
2022-12-17T17:03:58.684Z,48.50
2022-12-17T17:06:28.899Z,36.00
2022-12-17T17:08:59.753Z,39.00
2022-12-17T17:11:26.731Z,52.50
2022-12-17T17:13:56.848Z,61.60
2022-12-17T17:16:24.473Z,66.50
2022-12-17T17:18:51.758Z,64.00
2022-12-17T17:21:30.540Z,68.75
2022-12-17T17:24:01.494Z,64.00
2022-12-17T17:26:29.120Z,60.00
2022-12-17T17:28:55.659Z,51.25
2022-12-17T17:31:26.681Z,39.00
2022-12-17T17:33:57.245Z,69.00
2022-12-17T17:36:28.058Z,49.00
2022-12-17T17:38:55.004Z,77.50
2022-12-17T17:41:22.849Z,43.75
2022-12-17T17:44:03.160Z,49.25
2022-12-17T17:46:30.125Z,49.00
2022-12-17T17:49:00.546Z,52.40
2022-12-17T17:52:07.349Z,39.75
2022-12-17T17:54:17.371Z,32.60
2022-12-17T17:56:43.993Z,28.00
2022-12-17T17:59:15.943Z,30.80
2022-12-17T18:01:44.156Z,32.00
2022-12-17T18:04:15.158Z,31.60
2022-12-17T18:06:57.486Z,29.75
2022-12-17T18:09:29.026Z,32.00
2022-12-17T18:11:55.464Z,35.75
2022-12-17T18:14:21.942Z,39.60
2022-12-17T18:16:48.911Z,38.00
2022-12-17T18:19:22.831Z,38.00
2022-12-17T18:21:49.661Z,63.33
2022-12-17T18:24:22.856Z,45.00
2022-12-17T18:26:50.218Z,40.25
2022-12-17T18:29:16.634Z,36.00
2022-12-17T18:31:47.112Z,35.00
2022-12-17T18:34:17.867Z,32.25
2022-12-17T18:36:45.054Z,33.50
2022-12-17T18:39:11.520Z,35.00
2022-12-17T18:41:56.787Z,37.25
2022-12-17T18:44:23.514Z,38.40
2022-12-17T18:46:50.061Z,38.50
2022-12-17T18:49:17.729Z,38.75
2022-12-17T18:51:45.290Z,37.50
2022-12-17T18:54:22.279Z,38.00
2022-12-17T18:57:04.258Z,34.00
2022-12-17T18:59:31.189Z,35.00
2022-12-17T19:01:58.288Z,35.00
2022-12-17T19:04:25.380Z,39.00
2022-12-17T19:06:53.762Z,39.00
2022-12-17T19:09:23.395Z,37.00
2022-12-17T19:11:50.217Z,36.60
2022-12-17T19:14:17.980Z,32.75
2022-12-17T19:16:44.981Z,34.00
2022-12-17T19:19:12.453Z,41.80
2022-12-17T19:21:38.919Z,48.00
2022-12-17T19:24:06.741Z,37.00
2022-12-17T19:26:33.680Z,38.50
2022-12-17T19:29:00.439Z,42.60
2022-12-17T19:31:29.389Z,44.25
2022-12-17T19:33:56.915Z,37.67
2022-12-17T19:36:28.245Z,35.75
2022-12-17T19:38:56.595Z,37.20
2022-12-17T19:41:23.557Z,46.00
2022-12-17T19:43:54.420Z,37.00
2022-12-17T19:46:21.300Z,36.00
2022-12-17T19:48:48.932Z,39.00
2022-12-17T19:51:17.122Z,37.00
2022-12-17T19:53:44.255Z,34.25
2022-12-17T19:56:16.818Z,34.50
2022-12-17T19:58:43.819Z,34.40
2022-12-17T20:01:11.991Z,31.00
2022-12-17T20:03:39.009Z,32.00
2022-12-17T20:06:06.518Z,33.00
2022-12-17T20:08:33.617Z,32.50
2022-12-17T20:11:01.119Z,34.40
2022-12-17T20:13:28.138Z,34.00
2022-12-17T20:16:05.406Z,33.00
2022-12-17T20:18:32.553Z,38.25
2022-12-17T20:21:05.905Z,38.00
2022-12-17T20:23:32.933Z,37.80
2022-12-17T20:26:06.653Z,34.00
2022-12-17T20:28:33.666Z,32.50
2022-12-17T20:31:00.789Z,35.00
2022-12-17T20:33:27.248Z,35.60
2022-12-17T20:35:53.884Z,32.60
2022-12-17T20:38:20.525Z,32.00
2022-12-17T20:40:47.003Z,32.00
2022-12-17T20:43:13.524Z,32.75
2022-12-17T20:45:47.725Z,31.25
2022-12-17T20:48:14.314Z,34.00
2022-12-17T20:50:43.277Z,33.20
2022-12-17T20:53:09.797Z,33.20
2022-12-17T20:55:36.227Z,31.00
2022-12-17T20:58:02.912Z,31.00
2022-12-17T21:00:29.503Z,31.20
2022-12-17T21:02:57.090Z,30.00
2022-12-17T21:05:23.795Z,30.00
2022-12-17T21:07:51.096Z,30.40
2022-12-17T21:10:17.636Z,29.75
2022-12-17T21:13:02.842Z,30.50
2022-12-17T21:15:29.397Z,29.00
2022-12-17T21:17:56.048Z,29.00
2022-12-17T21:20:22.724Z,31.25
2022-12-17T21:22:49.503Z,29.00
2022-12-17T21:25:16.016Z,31.40
2022-12-17T21:27:42.477Z,31.60
2022-12-17T21:30:11.181Z,31.00
2022-12-17T21:32:39.945Z,33.60
2022-12-17T21:35:06.657Z,31.25
2022-12-17T21:37:33.205Z,30.00
2022-12-17T21:40:00.158Z,31.00
2022-12-17T21:42:45.407Z,31.00
2022-12-17T21:45:12.156Z,35.00
2022-12-17T21:47:38.822Z,35.25
2022-12-17T21:50:05.697Z,36.00
2022-12-17T21:52:32.162Z,36.00
2022-12-17T21:54:58.582Z,37.00
2022-12-17T21:57:25.062Z,36.25
2022-12-17T21:59:51.514Z,32.00
2022-12-17T22:02:19.042Z,33.00
2022-12-17T22:04:45.685Z,32.00
2022-12-17T22:07:16.373Z,31.00
2022-12-17T22:10:15.670Z,31.00
2022-12-17T22:12:53.610Z,32.00
2022-12-17T22:15:20.087Z,34.00
2022-12-17T22:17:47.775Z,37.50
2022-12-17T22:20:16.506Z,34.33
2022-12-17T22:22:43.342Z,33.25
2022-12-17T22:25:11.820Z,32.00
2022-12-17T22:27:39.671Z,31.25
2022-12-17T22:30:26.155Z,32.40
2022-12-17T22:33:08.968Z,31.00
2022-12-17T22:39:07.838Z,30.00
2022-12-17T22:39:41.538Z,33.50
2022-12-17T22:44:42.077Z,34.75
2022-12-17T22:44:51.706Z,33.00
2022-12-17T22:47:15.739Z,32.00
2022-12-17T22:49:43.946Z,29.80
2022-12-17T22:52:11.017Z,31.00
2022-12-17T22:54:37.810Z,30.00
2022-12-17T22:57:36.364Z,31.00
2022-12-17T22:59:51.205Z,33.75
2022-12-17T23:02:17.730Z,33.00
2022-12-17T23:04:44.359Z,32.20
2022-12-17T23:07:10.830Z,34.80
2022-12-17T23:09:37.352Z,33.75
2022-12-17T23:12:23.894Z,34.20
2022-12-17T23:14:50.624Z,31.75
2022-12-17T23:17:17.051Z,32.00
2022-12-17T23:19:43.486Z,32.00
2022-12-17T23:22:10.021Z,31.00
2022-12-17T23:24:36.454Z,34.50
2022-12-17T23:27:02.878Z,37.67
2022-12-17T23:29:29.457Z,39.40
2022-12-17T23:31:55.870Z,39.50
2022-12-17T23:34:22.292Z,36.00
2022-12-17T23:36:48.754Z,38.50
2022-12-17T23:39:15.258Z,36.00
2022-12-17T23:41:41.756Z,32.00
2022-12-17T23:44:08.261Z,33.50
2022-12-17T23:46:34.750Z,34.00
2022-12-17T23:49:03.539Z,34.50
2022-12-17T23:51:30.104Z,34.75
2022-12-17T23:53:58.353Z,32.00
2022-12-17T23:56:26.307Z,29.00
2022-12-17T23:58:54.713Z,30.50
